Wetterdaten: Woche 16.06.03 - 22.06.03 (KW25)
Datum Zeit Temperatur Luftfeuchte Luftdruck Regenmenge Wind Richtung Taupunkt Windchill
16.06.2003 00:00 20.6 C 70 % 1016.0 hPa 0.0 l/m 2.7 km/h (1 Bft) O-SO 14.9 C 20.6 C
16.06.2003 01:00 19.6 C 73 % 1015.8 hPa 0.0 l/m 2.3 km/h (1 Bft) O-SO 14.6 C 19.6 C
16.06.2003 02:00 18.5 C 80 % 1015.3 hPa 0.0 l/m 3.5 km/h (1 Bft) O-SO 15.0 C 18.5 C
16.06.2003 03:00 17.7 C 84 % 1015.3 hPa 0.0 l/m 0.4 km/h (0 Bft) O-SO 15.0 C 17.7 C
16.06.2003 04:00 16.9 C 89 % 1015.3 hPa 0.0 l/m 0.7 km/h (0 Bft) O-SO 15.1 C 16.9 C
16.06.2003 05:00 16.9 C 91 % 1015.3 hPa 0.0 l/m 0.8 km/h (0 Bft) O-SO 15.4 C 16.9 C
16.06.2003 06:00 16.9 C 90 % 1015.3 hPa 0.0 l/m 0.5 km/h (0 Bft) O-SO 15.1 C 16.9 C
16.06.2003 07:00 18.2 C 85 % 1015.3 hPa 0.0 l/m 1.9 km/h (1 Bft) O-SO 15.6 C 18.2 C
16.06.2003 08:00 19.6 C 77 % 1015.3 hPa 0.0 l/m 0.8 km/h (0 Bft) W-NW 15.5 C 19.6 C
16.06.2003 09:00 21.5 C 70 % 1015.1 hPa 0.0 l/m 1.0 km/h (0 Bft) W-NW 15.7 C 21.5 C
16.06.2003 10:00 24.4 C 59 % 1014.2 hPa 0.0 l/m 7.6 km/h (2 Bft) O-SO 15.8 C 24.4 C
16.06.2003 11:00 26.1 C 50 % 1014.2 hPa 0.0 l/m 6.8 km/h (2 Bft) O-SO 14.8 C 26.1 C
16.06.2003 12:00 27.0 C 43 % 1013.8 hPa 0.0 l/m 4.7 km/h (1 Bft) SO 13.4 C 27.0 C
16.06.2003 13:00 28.5 C 37 % 1013.2 hPa 0.0 l/m 3.4 km/h (1 Bft) W-NW 12.2 C 28.5 C
16.06.2003 14:00 29.7 C 35 % 1012.7 hPa 0.0 l/m 1.8 km/h (1 Bft) W-NW 12.7 C 29.7 C
16.06.2003 15:00 30.5 C 33 % 1012.2 hPa 0.0 l/m 3.0 km/h (1 Bft) O-SO 12.6 C 30.5 C
16.06.2003 16:00 30.8 C 33 % 1011.9 hPa 0.0 l/m 5.2 km/h (1 Bft) O-SO 12.5 C 30.8 C
16.06.2003 17:00 30.3 C 32 % 1011.1 hPa 0.0 l/m 4.1 km/h (1 Bft) O-SO 11.9 C 30.3 C
16.06.2003 18:00 29.3 C 37 % 1011.1 hPa 0.0 l/m 6.2 km/h (2 Bft) O-SO 13.2 C 29.3 C
16.06.2003 19:00 28.0 C 43 % 1011.1 hPa 0.0 l/m 0.3 km/h (0 Bft) O 14.3 C 28.0 C
16.06.2003 20:00 25.7 C 49 % 1010.8 hPa 0.0 l/m 0.8 km/h (0 Bft) O-SO 14.0 C 25.7 C
16.06.2003 21:00 24.9 C 51 % 1011.5 hPa 0.0 l/m 0.1 km/h (0 Bft) N 13.9 C 24.9 C
16.06.2003 22:00 23.8 C 56 % 1012.2 hPa 0.0 l/m 0.1 km/h (0 Bft) N 14.4 C 23.8 C
16.06.2003 23:00 22.2 C 64 % 1012.2 hPa 0.0 l/m 0.1 km/h (0 Bft) N 15.0 C 22.2 C
17.06.2003 00:00 19.8 C 74 % 1012.2 hPa 0.0 l/m 0.5 km/h (0 Bft) O 14.9 C 19.8 C
17.06.2003 01:00 18.9 C 76 % 1012.2 hPa 0.0 l/m 2.5 km/h (1 Bft) O-SO 14.6 C 18.9 C
17.06.2003 02:00 17.4 C 85 % 1012.2 hPa 0.0 l/m 1.0 km/h (0 Bft) O-SO 14.8 C 17.4 C
17.06.2003 03:00 16.4 C 88 % 1012.2 hPa 0.0 l/m 1.8 km/h (1 Bft) O-SO 14.4 C 16.4 C
17.06.2003 04:00 15.7 C 92 % 1012.2 hPa 0.0 l/m 1.5 km/h (1 Bft) O-SO 14.3 C 15.7 C
17.06.2003 05:00 15.4 C 94 % 1012.2 hPa 0.0 l/m 2.3 km/h (1 Bft) O-SO 14.4 C 15.4 C
17.06.2003 06:00 15.8 C 89 % 1012.2 hPa 0.0 l/m 0.0 km/h (0 Bft) N 14.0 C 15.8 C
17.06.2003 07:00 17.5 C 81 % 1012.2 hPa 0.0 l/m 0.0 km/h (0 Bft) N 14.2 C 17.5 C
17.06.2003 08:00 19.0 C 70 % 1012.4 hPa 0.0 l/m 0.1 km/h (0 Bft) N 13.4 C 19.0 C
17.06.2003 09:00 21.2 C 62 % 1012.6 hPa 0.0 l/m 0.8 km/h (0 Bft) O-SO 13.7 C 21.2 C
17.06.2003 10:00 23.1 C 55 % 1012.8 hPa 0.0 l/m 1.9 km/h (1 Bft) W-NW 13.6 C 23.1 C
17.06.2003 11:00 24.6 C 52 % 1012.5 hPa 0.0 l/m 3.1 km/h (1 Bft) NW 14.2 C 24.6 C
17.06.2003 12:00 25.9 C 49 % 1012.2 hPa 0.0 l/m 1.8 km/h (1 Bft) W-NW 14.2 C 25.9 C
17.06.2003 13:00 27.3 C 44 % 1012.2 hPa 0.0 l/m 4.2 km/h (1 Bft) NW 13.8 C 27.3 C
17.06.2003 14:00 28.4 C 38 % 1011.2 hPa 0.0 l/m 20.2 km/h (4 Bft) W-NW 12.7 C 28.4 C
17.06.2003 15:00 29.4 C 35 % 1011.1 hPa 0.0 l/m 12.1 km/h (2 Bft) W-NW 12.4 C 29.4 C
17.06.2003 16:00 30.6 C 33 % 1010.3 hPa 0.0 l/m 16.6 km/h (3 Bft) W-NW 12.3 C 30.6 C
17.06.2003 17:00 30.5 C 28 % 1010.1 hPa 0.0 l/m 17.0 km/h (3 Bft) W-NW 9.6 C 30.5 C
17.06.2003 18:00 30.5 C 33 % 1010.4 hPa 0.0 l/m 17.0 km/h (3 Bft) W-NW 12.4 C 30.5 C
17.06.2003 19:00 29.6 C 34 % 1011.1 hPa 0.0 l/m 17.6 km/h (3 Bft) NW 12.0 C 29.6 C
17.06.2003 20:00 26.0 C 45 % 1011.7 hPa 0.0 l/m 3.6 km/h (1 Bft) W-NW 12.9 C 26.0 C
17.06.2003 21:00 23.0 C 55 % 1012.2 hPa 0.0 l/m 3.8 km/h (1 Bft) O 13.5 C 23.0 C
17.06.2003 22:00 21.7 C 63 % 1012.9 hPa 0.0 l/m 5.5 km/h (1 Bft) SO 14.4 C 21.7 C
17.06.2003 23:00 21.0 C 69 % 1014.1 hPa 0.0 l/m 13.3 km/h (3 Bft) SO 15.2 C 21.0 C
18.06.2003 00:00 20.9 C 70 % 1014.8 hPa 0.0 l/m 5.7 km/h (1 Bft) SO 15.1 C 20.9 C
18.06.2003 01:00 21.1 C 61 % 1015.3 hPa 0.0 l/m 16.5 km/h (3 Bft) W-NW 13.3 C 21.1 C
18.06.2003 02:00 20.0 C 66 % 1015.3 hPa 0.0 l/m 17.5 km/h (3 Bft) NW 13.5 C 20.0 C
18.06.2003 03:00 19.0 C 73 % 1016.0 hPa 0.0 l/m 15.5 km/h (3 Bft) NW 14.0 C 19.0 C
18.06.2003 04:00 18.5 C 76 % 1016.3 hPa 0.0 l/m 5.8 km/h (2 Bft) W-NW 14.2 C 18.5 C
18.06.2003 05:00 18.3 C 80 % 1016.4 hPa 0.0 l/m 13.2 km/h (3 Bft) W-NW 14.9 C 18.3 C
18.06.2003 06:00 18.6 C 78 % 1017.3 hPa 0.0 l/m 16.0 km/h (3 Bft) NW 14.6 C 18.6 C
18.06.2003 07:00 18.7 C 72 % 1018.1 hPa 0.0 l/m 24.0 km/h (4 Bft) NW 13.6 C 18.7 C
18.06.2003 08:00 19.2 C 64 % 1018.4 hPa 0.0 l/m 31.2 km/h (5 Bft) NW 12.2 C 19.2 C
18.06.2003 09:00 19.6 C 59 % 1019.4 hPa 0.0 l/m 36.9 km/h (5 Bft) NW 11.4 C 19.6 C
18.06.2003 10:00 20.3 C 54 % 1019.6 hPa 0.0 l/m 36.8 km/h (5 Bft) W-NW 10.8 C 20.3 C
18.06.2003 11:00 21.0 C 48 % 1020.5 hPa 0.0 l/m 38.2 km/h (5 Bft) NW 9.6 C 21.0 C
18.06.2003 12:00 21.2 C 45 % 1020.5 hPa 0.0 l/m 37.9 km/h (5 Bft) NW 8.6 C 21.2 C
18.06.2003 13:00 22.3 C 40 % 1020.5 hPa 0.0 l/m 34.7 km/h (5 Bft) W-NW 8.2 C 22.3 C
18.06.2003 14:00 23.5 C 37 % 1020.5 hPa 0.0 l/m 27.5 km/h (4 Bft) NW 7.8 C 23.5 C
18.06.2003 15:00 24.5 C 33 % 1020.5 hPa 0.0 l/m 23.1 km/h (4 Bft) W-NW 7.1 C 24.5 C
18.06.2003 16:00 24.9 C 30 % 1020.5 hPa 0.0 l/m 18.4 km/h (3 Bft) W-NW 6.2 C 24.9 C
18.06.2003 17:00 25.4 C 30 % 1020.5 hPa 0.0 l/m 17.9 km/h (3 Bft) NW 6.3 C 25.4 C
18.06.2003 18:00 24.9 C 34 % 1020.5 hPa 0.0 l/m 25.5 km/h (4 Bft) NW 8.0 C 24.9 C
18.06.2003 19:00 24.5 C 37 % 1021.0 hPa 0.0 l/m 20.4 km/h (4 Bft) W-NW 8.9 C 24.5 C
18.06.2003 20:00 22.3 C 43 % 1021.5 hPa 0.0 l/m 12.4 km/h (3 Bft) W-NW 9.1 C 22.3 C
18.06.2003 21:00 20.2 C 56 % 1021.8 hPa 0.0 l/m 1.8 km/h (1 Bft) W-NW 11.1 C 20.2 C
18.06.2003 22:00 17.1 C 71 % 1022.6 hPa 0.0 l/m 0.6 km/h (0 Bft) O-SO 11.8 C 17.1 C
18.06.2003 23:00 16.9 C 70 % 1023.5 hPa 0.0 l/m 0.2 km/h (0 Bft) O-SO 11.3 C 16.9 C
19.06.2003 00:00 15.3 C 79 % 1023.6 hPa 0.0 l/m 3.1 km/h (1 Bft) O-SO 11.7 C 15.3 C
19.06.2003 01:00 14.6 C 81 % 1023.6 hPa 0.0 l/m 2.2 km/h (1 Bft) O-SO 11.5 C 14.6 C
19.06.2003 02:00 14.4 C 83 % 1024.3 hPa 0.0 l/m 2.0 km/h (1 Bft) O-SO 11.5 C 14.4 C
19.06.2003 03:00 13.6 C 86 % 1023.7 hPa 0.0 l/m 3.6 km/h (1 Bft) O-SO 11.3 C 13.6 C
19.06.2003 04:00 13.2 C 89 % 1024.6 hPa 0.0 l/m 2.1 km/h (1 Bft) O-SO 11.4 C 13.2 C
19.06.2003 05:00 12.9 C 93 % 1024.6 hPa 0.0 l/m 1.3 km/h (1 Bft) O-SO 11.8 C 12.9 C
19.06.2003 06:00 13.9 C 88 % 1024.7 hPa 0.0 l/m 0.6 km/h (0 Bft) O-SO 11.9 C 13.9 C
19.06.2003 07:00 15.5 C 78 % 1025.2 hPa 0.0 l/m 0.0 km/h (0 Bft) N 11.7 C 15.5 C
19.06.2003 08:00 17.1 C 69 % 1025.6 hPa 0.0 l/m 0.1 km/h (0 Bft) W-NW 11.4 C 17.1 C
19.06.2003 09:00 18.7 C 59 % 1025.6 hPa 0.0 l/m 6.7 km/h (2 Bft) W-NW 10.4 C 18.7 C
19.06.2003 10:00 20.3 C 53 % 1025.6 hPa 0.0 l/m 10.5 km/h (2 Bft) W 10.5 C 20.3 C
19.06.2003 11:00 21.3 C 46 % 1025.6 hPa 0.0 l/m 24.9 km/h (4 Bft) W-NW 9.3 C 21.3 C
19.06.2003 12:00 23.3 C 41 % 1025.0 hPa 0.0 l/m 13.0 km/h (3 Bft) W-NW 9.3 C 23.3 C
19.06.2003 13:00 24.7 C 32 % 1024.6 hPa 0.0 l/m 16.2 km/h (3 Bft) NW 7.1 C 24.7 C
19.06.2003 14:00 25.9 C 29 % 1024.5 hPa 0.0 l/m 16.8 km/h (3 Bft) NW 6.6 C 25.9 C
19.06.2003 15:00 26.6 C 31 % 1023.6 hPa 0.0 l/m 15.7 km/h (3 Bft) NW 8.1 C 26.6 C
19.06.2003 16:00 27.0 C 35 % 1023.6 hPa 0.0 l/m 12.3 km/h (3 Bft) NW 10.4 C 27.0 C
19.06.2003 17:00 27.0 C 39 % 1022.8 hPa 0.0 l/m 12.4 km/h (3 Bft) NW 11.9 C 27.0 C
19.06.2003 18:00 27.6 C 42 % 1022.5 hPa 0.0 l/m 16.1 km/h (3 Bft) NW 13.7 C 27.6 C
19.06.2003 19:00 27.2 C 44 % 1022.5 hPa 0.0 l/m 21.5 km/h (4 Bft) NW 13.9 C 27.2 C
19.06.2003 20:00 25.2 C 50 % 1022.5 hPa 0.0 l/m 16.8 km/h (3 Bft) NW 13.9 C 25.2 C
19.06.2003 21:00 23.0 C 58 % 1022.5 hPa 0.0 l/m 11.1 km/h (2 Bft) W-NW 14.3 C 23.0 C
19.06.2003 22:00 21.2 C 65 % 1022.5 hPa 0.0 l/m 1.1 km/h (1 Bft) W 14.4 C 21.2 C
19.06.2003 23:00 20.3 C 70 % 1022.5 hPa 0.0 l/m 0.8 km/h (0 Bft) W-NW 14.5 C 20.3 C
20.06.2003 00:00 19.6 C 74 % 1022.5 hPa 0.0 l/m 0.6 km/h (0 Bft) W 14.7 C 19.6 C
20.06.2003 01:00 19.0 C 76 % 1022.5 hPa 0.0 l/m 1.0 km/h (0 Bft) W-NW 14.7 C 19.0 C
20.06.2003 02:00 18.0 C 80 % 1022.5 hPa 0.0 l/m 0.3 km/h (0 Bft) SO 14.5 C 18.0 C
20.06.2003 03:00 17.3 C 84 % 1022.5 hPa 0.0 l/m 0.3 km/h (0 Bft) S-SO 14.5 C 17.3 C
20.06.2003 04:00 16.5 C 87 % 1022.5 hPa 0.0 l/m 0.8 km/h (0 Bft) O-SO 14.2 C 16.5 C
20.06.2003 05:00 16.2 C 90 % 1022.5 hPa 0.0 l/m 0.1 km/h (0 Bft) SO 14.6 C 16.2 C
20.06.2003 06:00 16.3 C 88 % 1022.5 hPa 0.0 l/m 0.0 km/h (0 Bft) N 14.3 C 16.3 C
20.06.2003 07:00 17.9 C 83 % 1022.5 hPa 0.0 l/m 0.0 km/h (0 Bft) N 14.8 C 17.9 C
20.06.2003 08:00 20.5 C 68 % 1022.5 hPa 0.0 l/m 5.6 km/h (1 Bft) W-NW 14.3 C 20.5 C
20.06.2003 09:00 21.7 C 62 % 1022.2 hPa 0.0 l/m 20.3 km/h (4 Bft) NW 14.2 C 21.7 C
20.06.2003 10:00 22.9 C 58 % 1021.5 hPa 0.0 l/m 22.3 km/h (4 Bft) W-NW 14.3 C 22.9 C
20.06.2003 11:00 24.0 C 52 % 1021.1 hPa 0.0 l/m 26.0 km/h (4 Bft) NW 13.5 C 24.0 C
20.06.2003 12:00 24.9 C 47 % 1020.5 hPa 0.0 l/m 33.1 km/h (5 Bft) NW 12.7 C 24.9 C
20.06.2003 13:00 25.6 C 41 % 1020.5 hPa 0.0 l/m 35.6 km/h (5 Bft) NW 11.3 C 25.6 C
20.06.2003 14:00 26.2 C 40 % 1020.0 hPa 0.0 l/m 36.9 km/h (5 Bft) NW 11.4 C 26.2 C
20.06.2003 15:00 27.4 C 35 % 1019.4 hPa 0.0 l/m 37.4 km/h (5 Bft) W-NW 10.4 C 27.4 C
20.06.2003 16:00 28.3 C 32 % 1018.4 hPa 0.0 l/m 29.5 km/h (5 Bft) NW 10.1 C 28.3 C
20.06.2003 17:00 27.1 C 35 % 1018.4 hPa 0.0 l/m 32.1 km/h (5 Bft) NW 10.2 C 27.1 C
20.06.2003 18:00 26.3 C 37 % 1017.6 hPa 0.0 l/m 28.7 km/h (4 Bft) NW 10.5 C 26.3 C
20.06.2003 19:00 26.8 C 42 % 1017.3 hPa 0.0 l/m 25.1 km/h (4 Bft) NW 12.8 C 26.8 C
20.06.2003 20:00 25.3 C 46 % 1017.3 hPa 0.0 l/m 17.2 km/h (3 Bft) W-NW 12.9 C 25.3 C
20.06.2003 21:00 23.7 C 54 % 1017.8 hPa 0.0 l/m 15.7 km/h (3 Bft) NW 13.9 C 23.7 C
20.06.2003 22:00 22.5 C 62 % 1018.4 hPa 0.0 l/m 7.3 km/h (2 Bft) NW 14.7 C 22.5 C
20.06.2003 23:00 20.8 C 63 % 1018.4 hPa 0.0 l/m 4.8 km/h (1 Bft) NW 13.4 C 20.8 C
21.06.2003 00:00 19.5 C 67 % 1018.4 hPa 0.0 l/m 3.3 km/h (1 Bft) NW 13.1 C 19.5 C
21.06.2003 01:00 17.9 C 70 % 1019.0 hPa 0.0 l/m 4.9 km/h (1 Bft) O-SO 12.4 C 17.9 C
21.06.2003 02:00 16.5 C 74 % 1019.3 hPa 0.0 l/m 5.1 km/h (1 Bft) O-SO 11.9 C 16.5 C
21.06.2003 03:00 14.6 C 81 % 1019.4 hPa 0.0 l/m 1.3 km/h (1 Bft) O-SO 11.4 C 14.6 C
21.06.2003 04:00 14.5 C 77 % 1019.4 hPa 0.0 l/m 0.5 km/h (0 Bft) O-SO 10.4 C 14.5 C
21.06.2003 05:00 13.1 C 84 % 1019.3 hPa 0.0 l/m 0.9 km/h (0 Bft) O-SO 10.4 C 13.1 C
21.06.2003 06:00 12.7 C 85 % 1019.4 hPa 0.0 l/m 0.0 km/h (0 Bft) N 10.2 C 12.7 C
21.06.2003 07:00 14.7 C 75 % 1019.4 hPa 0.0 l/m 0.0 km/h (0 Bft) N 10.3 C 14.7 C
21.06.2003 08:00 17.0 C 59 % 1019.4 hPa 0.0 l/m 1.0 km/h (0 Bft) NO 9.0 C 17.0 C
21.06.2003 09:00 18.8 C 51 % 1019.4 hPa 0.0 l/m 1.9 km/h (1 Bft) O-SO 8.5 C 18.8 C
21.06.2003 10:00 20.3 C 47 % 1019.0 hPa 0.0 l/m 1.4 km/h (1 Bft) NO 8.6 C 20.3 C
21.06.2003 11:00 22.2 C 41 % 1018.4 hPa 0.0 l/m 2.9 km/h (1 Bft) SO 8.1 C 22.2 C
21.06.2003 12:00 24.2 C 30 % 1018.4 hPa 0.0 l/m 5.2 km/h (1 Bft) NW 5.5 C 24.2 C
21.06.2003 13:00 25.8 C 25 % 1017.9 hPa 0.0 l/m 13.4 km/h (3 Bft) NW 4.3 C 25.8 C
21.06.2003 14:00 27.1 C 25 % 1017.3 hPa 0.0 l/m 13.5 km/h (3 Bft) W-NW 5.4 C 27.1 C
21.06.2003 15:00 28.2 C 25 % 1016.4 hPa 0.0 l/m 19.0 km/h (3 Bft) W-NW 6.3 C 28.2 C
21.06.2003 16:00 28.9 C 26 % 1016.3 hPa 0.0 l/m 16.3 km/h (3 Bft) NW 7.2 C 28.9 C
21.06.2003 17:00 29.1 C 26 % 1015.5 hPa 0.0 l/m 15.3 km/h (3 Bft) NW 7.5 C 29.1 C
21.06.2003 18:00 28.3 C 27 % 1015.3 hPa 0.0 l/m 9.9 km/h (2 Bft) NW 7.4 C 28.3 C
21.06.2003 19:00 26.9 C 28 % 1015.3 hPa 0.0 l/m 7.6 km/h (2 Bft) NW 6.7 C 26.9 C
21.06.2003 20:00 25.3 C 33 % 1015.3 hPa 0.0 l/m 2.0 km/h (1 Bft) W-NW 7.7 C 25.3 C
21.06.2003 21:00 21.1 C 44 % 1015.3 hPa 0.0 l/m 0.0 km/h (0 Bft) N 8.3 C 21.1 C
21.06.2003 22:00 18.5 C 49 % 1016.3 hPa 0.0 l/m 2.8 km/h (1 Bft) O-SO 7.4 C 18.5 C
21.06.2003 23:00 16.3 C 61 % 1016.3 hPa 0.0 l/m 2.0 km/h (1 Bft) O-SO 8.8 C 16.3 C
22.06.2003 00:00 15.1 C 66 % 1016.3 hPa 0.0 l/m 1.1 km/h (0 Bft) O-SO 8.7 C 15.1 C
22.06.2003 01:00 14.2 C 69 % 1016.3 hPa 0.0 l/m 0.5 km/h (0 Bft) O-SO 8.7 C 14.2 C
22.06.2003 02:00 13.3 C 73 % 1016.2 hPa 0.0 l/m 0.5 km/h (0 Bft) O-SO 8.6 C 13.3 C
22.06.2003 03:00 13.5 C 71 % 1015.5 hPa 0.0 l/m 0.0 km/h (0 Bft) N 8.3 C 13.5 C
22.06.2003 04:00 12.5 C 79 % 1015.3 hPa 0.0 l/m 0.0 km/h (0 Bft) N 8.9 C 12.5 C
22.06.2003 05:00 12.6 C 80 % 1015.3 hPa 0.0 l/m 0.0 km/h (0 Bft) N 9.2 C 12.6 C
22.06.2003 06:00 13.1 C 76 % 1015.3 hPa 0.0 l/m 0.0 km/h (0 Bft) N 8.9 C 13.1 C
22.06.2003 07:00 14.2 C 70 % 1015.3 hPa 0.0 l/m 0.1 km/h (0 Bft) N 8.9 C 14.2 C
22.06.2003 08:00 16.6 C 60 % 1015.3 hPa 0.0 l/m 0.7 km/h (0 Bft) O-SO 8.7 C 16.6 C
22.06.2003 09:00 19.9 C 47 % 1015.2 hPa 0.0 l/m 6.7 km/h (2 Bft) O-SO 8.4 C 19.9 C
22.06.2003 10:00 22.3 C 42 % 1014.3 hPa 0.0 l/m 2.8 km/h (1 Bft) O-SO 8.7 C 22.3 C
22.06.2003 11:00 24.8 C 37 % 1014.2 hPa 0.0 l/m 3.7 km/h (1 Bft) O-SO 9.0 C 24.8 C
22.06.2003 12:00 27.5 C 31 % 1013.4 hPa 0.0 l/m 5.8 km/h (2 Bft) O-SO 8.6 C 27.5 C
22.06.2003 13:00 29.6 C 27 % 1013.1 hPa 0.0 l/m 4.4 km/h (1 Bft) O-SO 8.4 C 29.6 C
22.06.2003 14:00 31.8 C 26 % 1012.3 hPa 0.0 l/m 3.9 km/h (1 Bft) O-SO 9.9 C 31.8 C
22.06.2003 15:00 33.1 C 27 % 1012.0 hPa 0.0 l/m 4.1 km/h (1 Bft) O-SO 11.5 C 33.1 C
22.06.2003 16:00 33.8 C 27 % 1011.1 hPa 0.0 l/m 6.2 km/h (2 Bft) O-SO 12.1 C 33.8 C
22.06.2003 17:00 33.3 C 27 % 1010.5 hPa 0.0 l/m 6.9 km/h (2 Bft) O-SO 11.7 C 33.3 C
22.06.2003 18:00 33.1 C 27 % 1010.1 hPa 0.0 l/m 2.6 km/h (1 Bft) O-SO 11.6 C 33.1 C
22.06.2003 19:00 32.0 C 27 % 1009.7 hPa 0.0 l/m 8.7 km/h (2 Bft) O-SO 10.8 C 32.0 C
22.06.2003 20:00 29.3 C 33 % 1009.4 hPa 0.0 l/m 6.0 km/h (2 Bft) O-SO 11.2 C 29.3 C
22.06.2003 21:00 25.0 C 41 % 1010.1 hPa 0.0 l/m 6.7 km/h (2 Bft) O-SO 10.7 C 25.0 C
22.06.2003 22:00 19.0 C 69 % 1010.1 hPa 0.0 l/m 5.4 km/h (1 Bft) O-SO 13.0 C 19.0 C
22.06.2003 23:00 15.9 C 86 % 1010.5 hPa 0.0 l/m 2.6 km/h (1 Bft) O-SO 13.6 C 15.9 C
Min-Datum _ 22.06.03 17.06.03 22.06.03 - 16.06.03 - 21.06.03 22.06.03
_ Min-Zeit 04:58 17:49 19:37 - 00:00 - 12:43 04:58
Minimum _ 12.0 C 25 % 1009.1 hPa - 0.0 km/h (0 Bft) - 3.1 C 12.0 C
Max-Datum _ 22.06.03 17.06.03 19.06.03 16.06.03 20.06.03 - 16.06.03 22.06.03
_ Max-Zeit 16:37 05:40 06:54 00:00 12:43 - 10:16 16:37
Maximum _ 34.3 C 96 % 1025.6 hPa 0.0 l/m 57.3 km/h
NW (7 Bft)
- 16.9 C 34.3 C
Durchschnitt _ 21.9 C 57 % 1017.2 hPa #0.0 l/m 8.8 km/h (2 Bft) NW 11.7 C 21.9 C

Durchschnitt Minimum Temp.20.9 C
Durchschnitt Maximum Temp.22.9 C
© Kaiko 2003